createdAt,value
2018-03-07T00:00:44.580Z,0
2018-03-07T00:01:54.570Z,0
2018-03-07T00:03:04.644Z,0
2018-03-07T00:04:14.645Z,0
2018-03-07T00:05:24.645Z,0
2018-03-07T00:06:34.635Z,0
2018-03-07T00:07:44.635Z,0
2018-03-07T00:08:54.363Z,0
2018-03-07T00:10:03.816Z,0
2018-03-07T00:11:13.548Z,0
2018-03-07T00:12:23.543Z,0
2018-03-07T00:13:33.270Z,0
2018-03-07T00:14:43.265Z,0
2018-03-07T00:15:52.994Z,0
2018-03-07T00:17:02.722Z,0
2018-03-07T00:18:12.716Z,0
2018-03-07T00:19:22.456Z,0
2018-03-07T00:20:32.189Z,0
2018-03-07T00:21:42.185Z,0
2018-03-07T00:22:51.916Z,0
2018-03-07T00:24:01.638Z,0
2018-03-07T00:25:11.692Z,0
2018-03-07T00:26:21.695Z,0
2018-03-07T00:27:31.695Z,0
2018-03-07T00:28:41.741Z,0
2018-03-07T00:29:51.197Z,0
2018-03-07T00:31:00.390Z,0
2018-03-07T00:32:09.580Z,0
2018-03-07T00:33:19.303Z,0
2018-03-07T00:34:29.303Z,0
2018-03-07T00:35:39.312Z,0
2018-03-07T00:36:49.022Z,0
2018-03-07T00:37:58.748Z,0
2018-03-07T00:39:08.207Z,0
2018-03-07T00:40:18.199Z,0
2018-03-07T00:41:27.391Z,0
2018-03-07T00:42:37.384Z,0
2018-03-07T00:43:47.113Z,0
2018-03-07T00:44:56.840Z,0
2018-03-07T00:46:06.605Z,0
2018-03-07T00:47:16.326Z,0
2018-03-07T00:48:26.055Z,0
2018-03-07T00:49:36.052Z,0
2018-03-07T00:50:46.044Z,0
2018-03-07T00:51:56.036Z,0
2018-03-07T00:53:05.763Z,0
2018-03-07T00:54:15.228Z,0
2018-03-07T00:55:24.696Z,0
2018-03-07T00:56:34.688Z,0
2018-03-07T00:57:44.679Z,0
2018-03-07T00:58:54.669Z,0
2018-03-07T01:00:04.661Z,0
2018-03-07T01:01:14.660Z,0
2018-03-07T01:02:24.655Z,0
2018-03-07T01:03:34.662Z,0
2018-03-07T01:04:44.124Z,0
2018-03-07T01:05:54.109Z,0
2018-03-07T01:07:04.199Z,0
2018-03-07T01:08:13.927Z,0
2018-03-07T01:09:23.653Z,0
2018-03-07T01:10:33.382Z,0
2018-03-07T01:11:43.110Z,0
2018-03-07T01:12:52.829Z,0
2018-03-07T01:14:02.559Z,0
2018-03-07T01:15:12.285Z,0
2018-03-07T01:16:22.285Z,0
2018-03-07T01:17:32.011Z,0
2018-03-07T01:18:41.746Z,0
2018-03-07T01:19:51.740Z,0
2018-03-07T01:21:01.456Z,0
2018-03-07T01:22:10.646Z,0
2018-03-07T01:23:19.842Z,0
2018-03-07T01:24:28.783Z,0
2018-03-07T01:25:38.777Z,0
2018-03-07T01:26:48.779Z,0
2018-03-07T01:27:58.505Z,0
2018-03-07T01:29:08.227Z,0
2018-03-07T01:30:18.217Z,0
2018-03-07T01:31:28.273Z,0
2018-03-07T01:32:38.003Z,0
2018-03-07T01:33:47.730Z,0
2018-03-07T01:34:57.460Z,0
2018-03-07T01:36:06.652Z,0
2018-03-07T01:37:16.645Z,0
2018-03-07T01:38:26.635Z,0
2018-03-07T01:39:36.623Z,0
2018-03-07T01:40:46.622Z,0
2018-03-07T01:41:56.351Z,0
2018-03-07T01:43:06.341Z,0
2018-03-07T01:44:16.070Z,0
2018-03-07T01:45:26.070Z,0
2018-03-07T01:46:35.799Z,0
2018-03-07T01:47:45.796Z,0
2018-03-07T01:48:55.522Z,0
2018-03-07T01:50:04.981Z,0
2018-03-07T01:51:14.976Z,0
2018-03-07T01:52:24.714Z,0
2018-03-07T01:53:34.726Z,0
2018-03-07T01:54:44.457Z,0
2018-03-07T01:55:54.492Z,0
2018-03-07T01:57:04.213Z,0
2018-03-07T01:58:14.203Z,0
2018-03-07T01:59:23.664Z,0
2018-03-07T02:00:33.122Z,0
2018-03-07T02:01:42.848Z,0
2018-03-07T02:02:52.307Z,0
2018-03-07T02:04:02.034Z,0
2018-03-07T02:05:11.496Z,0
2018-03-07T02:06:21.490Z,0
2018-03-07T02:07:31.219Z,0
2018-03-07T02:08:41.216Z,0
2018-03-07T02:09:50.989Z,0
2018-03-07T02:11:00.981Z,0
2018-03-07T02:12:10.705Z,0
2018-03-07T02:13:20.709Z,0
2018-03-07T02:14:30.166Z,0
2018-03-07T02:15:39.887Z,0
2018-03-07T02:16:49.886Z,0
2018-03-07T02:17:59.612Z,0
2018-03-07T02:19:09.344Z,0
2018-03-07T02:20:19.341Z,0
2018-03-07T02:21:29.336Z,0
2018-03-07T02:22:39.057Z,0
2018-03-07T02:23:49.047Z,0
2018-03-07T02:24:58.770Z,0
2018-03-07T02:26:07.700Z,0
2018-03-07T02:27:17.697Z,0
2018-03-07T02:28:27.689Z,0
2018-03-07T02:29:37.692Z,0
2018-03-07T02:30:47.430Z,0
2018-03-07T02:31:56.920Z,0
2018-03-07T02:33:06.385Z,0
2018-03-07T02:34:15.854Z,0
2018-03-07T02:35:25.842Z,0
2018-03-07T02:36:35.851Z,0
2018-03-07T02:37:45.580Z,0
2018-03-07T02:38:55.576Z,0
2018-03-07T02:40:05.039Z,0
2018-03-07T02:41:14.768Z,0
2018-03-07T02:42:24.780Z,0
2018-03-07T02:43:34.789Z,0
2018-03-07T02:44:44.523Z,0
2018-03-07T02:45:54.520Z,0
2018-03-07T02:47:04.549Z,0
2018-03-07T02:48:14.553Z,0
2018-03-07T02:49:24.286Z,0
2018-03-07T02:50:34.015Z,0
2018-03-07T02:51:44.026Z,0
2018-03-07T02:52:54.027Z,0
2018-03-07T02:54:02.959Z,0
2018-03-07T02:55:12.424Z,0
2018-03-07T02:56:22.431Z,0
2018-03-07T02:57:32.428Z,0
2018-03-07T02:58:42.175Z,0
2018-03-07T02:59:52.181Z,0
2018-03-07T03:01:02.180Z,0
2018-03-07T03:02:11.645Z,0
2018-03-07T03:03:21.374Z,0
2018-03-07T03:04:30.571Z,0
2018-03-07T03:05:40.300Z,0
2018-03-07T03:06:50.039Z,0
2018-03-07T03:08:00.045Z,0
2018-03-07T03:09:10.068Z,0
2018-03-07T03:10:19.791Z,0
2018-03-07T03:11:29.520Z,0
2018-03-07T03:12:39.275Z,0
2018-03-07T03:13:49.265Z,0
2018-03-07T03:14:58.987Z,0
2018-03-07T03:16:08.977Z,0
2018-03-07T03:17:18.969Z,0
2018-03-07T03:18:28.960Z,0
2018-03-07T03:19:38.948Z,0
2018-03-07T03:20:48.682Z,0
2018-03-07T03:21:58.668Z,0
2018-03-07T03:23:08.666Z,0
2018-03-07T03:24:18.658Z,0
2018-03-07T03:25:28.378Z,0
2018-03-07T03:26:37.568Z,0
2018-03-07T03:27:47.295Z,0
2018-03-07T03:28:57.287Z,0
2018-03-07T03:30:07.034Z,0
2018-03-07T03:31:17.045Z,0
2018-03-07T03:32:26.776Z,0
2018-03-07T03:33:36.773Z,0
2018-03-07T03:34:46.761Z,0
2018-03-07T03:35:56.488Z,0
2018-03-07T03:37:06.478Z,0
2018-03-07T03:38:16.478Z,0
2018-03-07T03:39:26.578Z,0
2018-03-07T03:40:36.039Z,0
2018-03-07T03:41:45.768Z,0
2018-03-07T03:42:55.759Z,0
2018-03-07T03:44:05.484Z,0
2018-03-07T03:45:15.476Z,0
2018-03-07T03:46:25.464Z,0
2018-03-07T03:47:35.196Z,0
2018-03-07T03:48:44.920Z,0
2018-03-07T03:49:54.917Z,0
2018-03-07T03:51:04.644Z,0
2018-03-07T03:52:14.639Z,0
2018-03-07T03:53:24.635Z,0
2018-03-07T03:54:34.628Z,0
2018-03-07T03:55:44.617Z,0
2018-03-07T03:56:54.433Z,0
2018-03-07T03:58:04.158Z,0
2018-03-07T03:59:14.154Z,0
2018-03-07T04:03:24.453Z,0
2018-03-07T04:04:34.444Z,0
2018-03-07T04:05:44.434Z,0
2018-03-07T04:06:54.420Z,0
2018-03-07T04:08:04.144Z,0
2018-03-07T04:09:14.143Z,0
2018-03-07T04:10:24.135Z,0
2018-03-07T04:11:34.133Z,0
2018-03-07T04:12:44.124Z,0
2018-03-07T04:13:54.122Z,0
2018-03-07T04:15:04.114Z,0
2018-03-07T04:16:14.108Z,0
2018-03-07T04:17:24.098Z,0
2018-03-07T04:18:34.096Z,0
2018-03-07T04:19:43.810Z,0
2018-03-07T04:20:53.801Z,0
2018-03-07T04:22:03.796Z,0
2018-03-07T04:23:13.520Z,0
2018-03-07T04:24:23.511Z,0
2018-03-07T04:25:33.748Z,0
2018-03-07T04:26:43.482Z,0
2018-03-07T04:27:52.940Z,0
2018-03-07T04:29:02.937Z,0
2018-03-07T04:30:12.396Z,0
2018-03-07T04:31:22.449Z,0
2018-03-07T04:32:32.170Z,0
2018-03-07T04:33:42.160Z,0
2018-03-07T04:34:52.162Z,0
2018-03-07T04:36:02.159Z,0
2018-03-07T04:37:11.890Z,0
2018-03-07T04:38:21.890Z,0
2018-03-07T04:39:31.879Z,0
2018-03-07T04:40:41.969Z,0
2018-03-07T04:41:51.724Z,0
2018-03-07T04:43:01.719Z,0
2018-03-07T04:44:11.710Z,0
2018-03-07T04:45:21.700Z,0
2018-03-07T04:46:31.690Z,0
2018-03-07T04:47:41.687Z,0
2018-03-07T04:48:51.685Z,0
2018-03-07T04:50:01.680Z,0
2018-03-07T04:51:11.713Z,0
2018-03-07T04:52:21.720Z,0
2018-03-07T04:53:31.722Z,0
2018-03-07T04:54:41.455Z,0
2018-03-07T04:55:51.178Z,0
2018-03-07T04:57:01.169Z,0
2018-03-07T04:58:11.162Z,0
2018-03-07T04:59:21.153Z,0
2018-03-07T05:00:31.143Z,0
2018-03-07T05:01:41.130Z,0
2018-03-07T05:02:51.115Z,0
2018-03-07T05:04:00.835Z,0
2018-03-07T05:05:10.302Z,0
2018-03-07T05:06:20.339Z,0
2018-03-07T05:07:29.800Z,0
2018-03-07T05:08:39.791Z,0
2018-03-07T05:09:49.521Z,0
2018-03-07T05:10:59.517Z,0
2018-03-07T05:12:09.237Z,0
2018-03-07T05:13:18.982Z,0
2018-03-07T05:14:28.451Z,0
2018-03-07T05:15:38.447Z,0
2018-03-07T05:16:48.437Z,0
2018-03-07T05:17:58.428Z,0
2018-03-07T05:19:08.150Z,0
2018-03-07T05:20:18.147Z,0
2018-03-07T05:21:27.877Z,0
2018-03-07T05:22:37.608Z,0
2018-03-07T05:23:47.336Z,0
2018-03-07T05:24:57.335Z,4
2018-03-07T05:26:07.333Z,4
2018-03-07T05:27:17.060Z,4
2018-03-07T05:28:26.786Z,0
2018-03-07T05:29:36.781Z,4
2018-03-07T05:30:46.511Z,4
2018-03-07T05:31:56.503Z,8
2018-03-07T05:33:06.501Z,4
2018-03-07T05:34:16.535Z,8
2018-03-07T05:35:26.393Z,4
2018-03-07T05:36:36.387Z,8
2018-03-07T05:37:45.851Z,8
2018-03-07T05:38:55.940Z,12
2018-03-07T05:40:05.933Z,12
2018-03-07T05:41:15.662Z,12
2018-03-07T05:42:25.662Z,16
2018-03-07T05:43:35.391Z,20
2018-03-07T05:44:45.382Z,20
2018-03-07T05:45:54.842Z,24
2018-03-07T05:47:04.570Z,32
2018-03-07T05:48:14.565Z,32
2018-03-07T05:49:24.288Z,40
2018-03-07T05:50:33.752Z,44
2018-03-07T05:51:43.478Z,48
2018-03-07T05:52:53.204Z,52
2018-03-07T05:54:03.315Z,64
2018-03-07T05:55:12.768Z,72
2018-03-07T05:56:22.491Z,80
2018-03-07T05:57:32.218Z,96
2018-03-07T05:58:42.210Z,112
2018-03-07T05:59:52.202Z,132
2018-03-07T06:01:01.929Z,156
2018-03-07T06:02:11.667Z,188
2018-03-07T06:03:21.659Z,216
2018-03-07T06:04:31.389Z,244
2018-03-07T06:05:40.842Z,264
2018-03-07T06:06:50.883Z,288
2018-03-07T06:08:00.881Z,304
2018-03-07T06:09:10.884Z,316
2018-03-07T06:10:20.877Z,332
2018-03-07T06:11:30.867Z,340
2018-03-07T06:12:40.858Z,348
2018-03-07T06:13:50.853Z,372
2018-03-07T06:15:00.581Z,396
2018-03-07T06:16:10.304Z,432
2018-03-07T06:17:19.495Z,480
2018-03-07T06:18:29.218Z,520
2018-03-07T06:19:39.214Z,576
2018-03-07T06:20:49.218Z,612
2018-03-07T06:21:59.319Z,624
2018-03-07T06:23:09.057Z,632
2018-03-07T06:24:19.057Z,656
2018-03-07T06:25:29.054Z,684
2018-03-07T06:26:39.042Z,716
2018-03-07T06:27:48.773Z,744
2018-03-07T06:28:58.498Z,768
2018-03-07T06:30:07.963Z,804
2018-03-07T06:31:17.960Z,832
2018-03-07T06:32:27.423Z,852
2018-03-07T06:33:37.413Z,856
2018-03-07T06:34:47.194Z,856
2018-03-07T06:35:57.191Z,872
2018-03-07T06:37:07.180Z,912
2018-03-07T06:38:16.909Z,956
2018-03-07T06:39:26.911Z,1000
2018-03-07T06:40:36.899Z,1072
2018-03-07T06:41:46.888Z,1156
2018-03-07T06:42:56.883Z,1228
2018-03-07T06:44:07.050Z,1280
2018-03-07T06:45:17.054Z,1324
2018-03-07T06:46:26.786Z,1376
2018-03-07T06:47:36.866Z,1476
2018-03-07T06:48:46.858Z,1580
2018-03-07T06:49:56.855Z,1652
2018-03-07T06:51:06.577Z,1696
2018-03-07T06:52:16.587Z,1724
2018-03-07T06:53:26.316Z,1776
2018-03-07T06:54:36.321Z,1844
2018-03-07T06:55:46.310Z,1856
2018-03-07T06:56:56.310Z,1816
2018-03-07T06:58:06.304Z,1788
2018-03-07T06:59:16.030Z,1792
2018-03-07T07:00:25.769Z,1812
2018-03-07T07:01:35.759Z,1864
2018-03-07T07:02:45.751Z,2000
2018-03-07T07:03:55.743Z,2224
2018-03-07T07:05:05.735Z,2464
2018-03-07T07:06:15.042Z,2648
2018-03-07T07:07:25.091Z,2876
2018-03-07T07:08:34.835Z,3064
2018-03-07T07:09:44.831Z,3176
2018-03-07T07:10:54.819Z,3196
2018-03-07T07:12:04.814Z,3148
2018-03-07T07:13:14.574Z,3112
2018-03-07T07:14:24.572Z,3132
2018-03-07T07:15:34.301Z,3252
2018-03-07T07:16:44.306Z,3344
2018-03-07T07:17:54.308Z,3328
2018-03-07T07:19:03.769Z,3260
2018-03-07T07:20:13.775Z,3200
2018-03-07T07:21:23.765Z,3200
2018-03-07T07:22:33.494Z,3316
2018-03-07T07:23:43.492Z,3508
2018-03-07T07:24:53.485Z,3680
2018-03-07T07:26:03.218Z,3588
2018-03-07T07:27:13.241Z,3512
2018-03-07T07:28:23.232Z,3496
2018-03-07T07:29:32.694Z,3508
2018-03-07T07:30:42.421Z,3516
2018-03-07T07:31:52.431Z,3452
2018-03-07T07:33:02.447Z,3372
2018-03-07T07:34:12.449Z,3304
2018-03-07T07:35:22.174Z,3308
2018-03-07T07:36:32.223Z,3392
2018-03-07T07:37:42.218Z,3408
2018-03-07T07:38:51.949Z,3340
2018-03-07T07:40:01.945Z,3268
2018-03-07T07:41:11.672Z,3252
2018-03-07T07:42:21.396Z,3244
2018-03-07T07:43:31.319Z,3148
2018-03-07T07:44:41.316Z,3092
2018-03-07T07:45:51.045Z,3140
2018-03-07T07:47:00.775Z,3232
2018-03-07T07:48:10.776Z,3352
2018-03-07T07:49:20.782Z,3584
2018-03-07T07:50:30.781Z,3900
2018-03-07T07:51:40.508Z,4256
2018-03-07T07:52:50.497Z,4512
2018-03-07T07:53:59.957Z,4600
2018-03-07T07:55:09.690Z,4464
2018-03-07T07:56:19.689Z,4320
2018-03-07T07:57:29.419Z,4296
2018-03-07T07:58:39.428Z,4364
2018-03-07T07:59:49.430Z,4420
2018-03-07T08:00:59.425Z,4280
2018-03-07T08:02:09.523Z,3992
2018-03-07T08:03:19.278Z,3752
2018-03-07T08:04:28.752Z,3600
2018-03-07T08:05:38.746Z,3448
2018-03-07T08:06:48.749Z,3300
2018-03-07T08:07:58.476Z,3192
2018-03-07T08:09:08.486Z,3124
2018-03-07T08:10:18.212Z,3092
2018-03-07T08:11:28.210Z,3112
2018-03-07T08:12:37.674Z,3160
2018-03-07T08:13:47.408Z,3268
2018-03-07T08:14:57.157Z,3372
2018-03-07T08:16:07.148Z,3500
2018-03-07T08:17:17.152Z,3632
2018-03-07T08:18:27.055Z,3752
2018-03-07T08:19:37.067Z,3864
2018-03-07T08:20:47.069Z,4004
2018-03-07T08:21:57.070Z,4200
2018-03-07T08:23:07.070Z,4504
2018-03-07T08:24:17.075Z,4868
2018-03-07T08:25:27.070Z,5220
2018-03-07T08:26:37.069Z,5652
2018-03-07T08:27:46.895Z,6020
2018-03-07T08:28:56.892Z,6020
2018-03-07T08:30:06.644Z,5784
2018-03-07T08:31:16.380Z,5340
2018-03-07T08:32:26.378Z,5036
2018-03-07T08:33:36.106Z,5028
2018-03-07T08:34:46.101Z,5284
2018-03-07T08:35:56.098Z,5768
2018-03-07T08:37:05.554Z,6444
2018-03-07T08:38:15.282Z,7064
2018-03-07T08:39:25.021Z,7380
2018-03-07T08:40:34.746Z,7452
2018-03-07T08:41:44.541Z,7512
2018-03-07T08:42:54.265Z,7848
2018-03-07T08:44:04.260Z,8140
2018-03-07T08:45:14.256Z,8128
2018-03-07T08:46:24.299Z,8132
2018-03-07T08:47:33.764Z,8076
2018-03-07T08:48:43.493Z,8076
2018-03-07T08:49:52.952Z,7964
2018-03-07T08:51:02.952Z,7952
2018-03-07T08:52:12.961Z,8212
2018-03-07T08:53:22.956Z,8420
2018-03-07T08:54:32.704Z,8764
2018-03-07T08:55:42.169Z,9208
2018-03-07T08:56:51.955Z,9512
2018-03-07T08:58:01.416Z,9644
2018-03-07T08:59:11.152Z,9608
2018-03-07T09:00:21.151Z,9388
2018-03-07T09:01:31.270Z,8872
2018-03-07T09:02:40.976Z,8336
2018-03-07T09:03:50.972Z,7764
2018-03-07T09:05:00.437Z,7352
2018-03-07T09:06:09.907Z,7028
2018-03-07T09:07:19.908Z,6740
2018-03-07T09:08:29.912Z,6592
2018-03-07T09:09:39.913Z,6480
2018-03-07T09:10:49.651Z,6456
2018-03-07T09:11:59.656Z,6336
2018-03-07T09:13:09.122Z,6252
2018-03-07T09:14:19.123Z,6136
2018-03-07T09:15:29.177Z,5956
2018-03-07T09:16:39.233Z,5764
2018-03-07T09:17:49.229Z,5832
2018-03-07T09:18:59.228Z,6088
2018-03-07T09:20:09.236Z,6252
2018-03-07T09:21:19.233Z,6192
2018-03-07T09:22:28.971Z,6288
2018-03-07T09:23:38.979Z,6508
2018-03-07T09:24:48.982Z,6860
2018-03-07T09:25:58.710Z,7244
2018-03-07T09:27:08.491Z,7660
2018-03-07T09:28:18.495Z,7872
2018-03-07T09:29:27.951Z,8088
2018-03-07T09:30:37.945Z,8596
2018-03-07T09:31:47.943Z,9064
2018-03-07T09:32:57.944Z,9456
2018-03-07T09:34:07.675Z,9992
2018-03-07T09:35:17.678Z,10556
2018-03-07T09:36:27.406Z,10660
2018-03-07T09:37:37.133Z,10392
2018-03-07T09:38:46.597Z,9752
2018-03-07T09:39:56.594Z,9196
2018-03-07T09:41:06.589Z,8792
2018-03-07T09:42:16.620Z,8860
2018-03-07T09:43:26.364Z,9048
2018-03-07T09:44:36.377Z,8812
2018-03-07T09:45:46.117Z,8368
2018-03-07T09:46:55.844Z,8012
2018-03-07T09:48:05.578Z,8140
2018-03-07T09:49:15.583Z,8548
2018-03-07T09:50:25.595Z,8952
2018-03-07T09:51:35.328Z,9432
2018-03-07T09:52:45.328Z,10272
2018-03-07T09:53:55.326Z,10936
2018-03-07T09:55:05.327Z,11344
2018-03-07T09:56:15.548Z,11604
2018-03-07T09:57:25.561Z,11788
2018-03-07T09:58:34.763Z,11816
2018-03-07T09:59:44.228Z,11856
2018-03-07T10:00:54.223Z,12068
2018-03-07T10:02:04.479Z,11876
2018-03-07T10:03:14.507Z,11504
2018-03-07T10:04:24.254Z,11364
2018-03-07T10:05:33.988Z,11084
2018-03-07T10:06:43.722Z,10676
2018-03-07T10:07:53.456Z,10300
2018-03-07T10:09:03.451Z,10004
2018-03-07T10:10:13.202Z,9536
2018-03-07T10:11:22.940Z,9416
2018-03-07T10:12:32.672Z,9312
2018-03-07T10:13:42.668Z,9508
2018-03-07T10:14:52.668Z,9764
2018-03-07T10:16:01.873Z,10160
2018-03-07T10:17:11.611Z,10648
2018-03-07T10:18:21.617Z,10912
2018-03-07T10:19:31.622Z,11124
2018-03-07T10:20:41.644Z,11164
2018-03-07T10:21:51.996Z,11192
2018-03-07T10:23:01.536Z,11228
2018-03-07T10:24:11.271Z,11252
2018-03-07T10:25:21.012Z,11236
2018-03-07T10:26:31.008Z,10868
2018-03-07T10:27:41.017Z,10492
2018-03-07T10:28:51.019Z,10416
2018-03-07T10:30:01.015Z,10464
2018-03-07T10:31:10.481Z,10536
2018-03-07T10:32:20.479Z,10708
2018-03-07T10:33:30.212Z,10760
2018-03-07T10:34:39.942Z,10744
2018-03-07T10:35:49.942Z,10796
2018-03-07T10:36:59.679Z,10868
2018-03-07T10:38:09.144Z,11052
2018-03-07T10:39:19.351Z,10868
2018-03-07T10:40:29.086Z,10404
2018-03-07T10:41:39.129Z,9804
2018-03-07T10:42:48.594Z,9188
2018-03-07T10:43:58.332Z,8844
2018-03-07T10:45:08.068Z,8856
2018-03-07T10:46:18.069Z,9044
2018-03-07T10:47:27.799Z,9148
2018-03-07T10:48:37.524Z,9192
2018-03-07T10:49:46.990Z,9460
2018-03-07T10:50:56.732Z,9820
2018-03-07T10:52:06.472Z,10052
2018-03-07T10:53:16.211Z,10348
2018-03-07T10:54:26.214Z,11012
2018-03-07T10:55:36.212Z,11408
2018-03-07T10:56:45.942Z,11584
2018-03-07T10:57:55.420Z,11604
2018-03-07T10:59:05.421Z,11196
2018-03-07T11:00:15.174Z,10976
2018-03-07T11:01:24.915Z,10648
2018-03-07T11:02:35.048Z,10368
2018-03-07T11:03:44.790Z,10248
2018-03-07T11:04:54.789Z,9968
2018-03-07T11:06:04.530Z,9592
2018-03-07T11:07:14.263Z,9464
2018-03-07T11:08:24.285Z,9428
2018-03-07T11:09:34.315Z,9120
2018-03-07T11:10:44.325Z,8988
2018-03-07T11:11:54.054Z,8980
2018-03-07T11:13:04.074Z,8612
2018-03-07T11:14:13.543Z,8264
2018-03-07T11:15:23.547Z,8480
2018-03-07T11:16:33.020Z,8912
2018-03-07T11:17:43.022Z,9388
2018-03-07T11:18:52.221Z,9800
2018-03-07T11:20:02.054Z,10036
2018-03-07T11:21:11.789Z,9812
2018-03-07T11:22:21.557Z,9504
2018-03-07T11:23:31.298Z,9448
2018-03-07T11:24:41.437Z,9160
2018-03-07T11:25:51.443Z,8948
2018-03-07T11:27:01.179Z,8956
2018-03-07T11:28:10.695Z,9168
2018-03-07T11:29:20.158Z,9280
2018-03-07T11:30:29.621Z,9404
2018-03-07T11:31:39.364Z,9852
2018-03-07T11:32:49.373Z,10280
2018-03-07T11:33:59.103Z,10444
2018-03-07T11:35:08.836Z,10896
2018-03-07T11:36:18.579Z,11260
2018-03-07T11:37:28.047Z,11172
2018-03-07T11:38:37.795Z,10932
2018-03-07T11:39:47.820Z,11100
2018-03-07T11:40:57.888Z,11092
2018-03-07T11:42:07.354Z,10804
2018-03-07T11:43:17.353Z,10700
2018-03-07T11:44:27.086Z,10556
2018-03-07T11:45:37.090Z,10436
2018-03-07T11:46:47.086Z,10320
2018-03-07T11:47:56.553Z,10404
2018-03-07T11:49:06.557Z,10884
2018-03-07T11:50:16.562Z,11432
2018-03-07T11:51:26.294Z,11732
2018-03-07T11:52:36.302Z,12108
2018-03-07T11:53:46.304Z,12240
2018-03-07T11:54:56.301Z,11884
2018-03-07T11:56:06.363Z,12304
2018-03-07T11:57:16.408Z,12476
2018-03-07T11:58:26.150Z,12268
2018-03-07T11:59:36.160Z,12332
2018-03-07T12:00:45.902Z,12464
2018-03-07T12:01:55.630Z,12264
2018-03-07T12:03:05.636Z,11904
2018-03-07T12:04:15.631Z,12300
2018-03-07T12:05:25.632Z,12376
2018-03-07T12:06:35.387Z,12276
2018-03-07T12:07:44.848Z,12456
2018-03-07T12:08:54.579Z,12584
2018-03-07T12:10:04.589Z,12720
2018-03-07T12:11:14.330Z,12408
2018-03-07T12:12:24.063Z,12196
2018-03-07T12:13:33.795Z,11668
2018-03-07T12:14:43.793Z,11268
2018-03-07T12:15:53.536Z,11284
2018-03-07T12:17:03.273Z,11316
2018-03-07T12:18:12.204Z,11284
2018-03-07T12:19:21.937Z,11120
2018-03-07T12:20:31.683Z,11116
2018-03-07T12:21:41.419Z,11256
2018-03-07T12:22:51.427Z,10900
2018-03-07T12:24:01.423Z,10532
2018-03-07T12:25:11.425Z,10272
2018-03-07T12:26:21.424Z,9908
2018-03-07T12:27:31.510Z,9728
2018-03-07T12:28:40.984Z,9884
2018-03-07T12:29:50.986Z,10056
2018-03-07T12:31:01.065Z,10284
2018-03-07T12:32:11.065Z,10308
2018-03-07T12:33:21.063Z,10260
2018-03-07T12:34:29.995Z,10452
2018-03-07T12:35:39.727Z,10480
2018-03-07T12:36:49.720Z,10264
2018-03-07T12:37:59.452Z,10112
2018-03-07T12:39:09.185Z,10084
2018-03-07T12:40:19.184Z,9688
2018-03-07T12:41:29.196Z,9120
2018-03-07T12:42:38.932Z,9172
2018-03-07T12:43:48.677Z,9268
2018-03-07T12:44:58.689Z,9532
2018-03-07T12:46:08.152Z,9676
2018-03-07T12:47:17.883Z,9700
2018-03-07T12:48:27.613Z,9972
2018-03-07T12:49:37.093Z,9652
2018-03-07T12:50:46.825Z,9924
2018-03-07T12:51:56.822Z,9872
2018-03-07T12:53:06.554Z,10076
2018-03-07T12:54:16.286Z,10532
2018-03-07T12:55:26.284Z,10972
2018-03-07T12:56:36.281Z,11764
2018-03-07T12:57:46.280Z,12808
2018-03-07T12:58:56.011Z,13480
2018-03-07T13:00:05.752Z,14084
2018-03-07T13:01:15.757Z,14076
2018-03-07T13:02:25.764Z,13808
2018-03-07T13:03:35.769Z,12900
2018-03-07T13:04:45.508Z,11996
2018-03-07T13:05:55.503Z,11036
2018-03-07T13:07:05.512Z,10136
2018-03-07T13:08:15.522Z,9608
2018-03-07T13:09:24.987Z,9248
2018-03-07T13:10:34.722Z,8972
2018-03-07T13:11:44.453Z,8876
2018-03-07T13:12:54.453Z,8460
2018-03-07T13:14:04.490Z,8232
2018-03-07T13:15:14.490Z,8132
2018-03-07T13:16:24.228Z,8160
2018-03-07T13:17:34.262Z,8188
2018-03-07T13:18:43.999Z,8076
2018-03-07T13:19:54.013Z,7992
2018-03-07T13:21:03.748Z,8080
2018-03-07T13:22:13.226Z,8176
2018-03-07T13:23:23.226Z,8072
2018-03-07T13:24:32.963Z,8120
2018-03-07T13:25:42.704Z,8216
2018-03-07T13:26:52.441Z,8240
2018-03-07T13:28:02.170Z,8332
2018-03-07T13:29:12.175Z,8204
2018-03-07T13:30:22.282Z,8048
2018-03-07T13:31:32.012Z,8088
2018-03-07T13:32:41.746Z,8060
2018-03-07T13:33:51.754Z,8084
2018-03-07T13:35:01.755Z,8140
2018-03-07T13:36:11.487Z,8276
2018-03-07T13:37:21.481Z,8508
2018-03-07T13:38:31.214Z,8596
2018-03-07T13:39:41.215Z,8364
2018-03-07T13:40:51.206Z,8184
2018-03-07T13:42:00.935Z,7836
2018-03-07T13:43:10.665Z,7684
2018-03-07T13:44:20.663Z,7548
2018-03-07T13:45:30.660Z,7536
2018-03-07T13:46:40.389Z,7616
2018-03-07T13:47:50.396Z,7840
2018-03-07T13:48:59.864Z,7904
2018-03-07T13:50:09.063Z,7808
2018-03-07T13:51:19.072Z,7804
2018-03-07T13:52:28.804Z,7800
2018-03-07T13:53:38.270Z,7856
2018-03-07T13:54:48.279Z,7916
2018-03-07T13:55:58.315Z,7832
2018-03-07T13:57:07.789Z,7844
2018-03-07T13:58:17.786Z,7836
2018-03-07T13:59:27.258Z,7724
2018-03-07T14:00:37.262Z,7524
2018-03-07T14:01:47.261Z,7272
2018-03-07T14:02:57.254Z,6824
2018-03-07T14:04:06.993Z,6444
2018-03-07T14:05:16.462Z,6284
2018-03-07T14:06:26.497Z,6316
2018-03-07T14:07:36.499Z,6352
2018-03-07T14:08:46.499Z,6368
2018-03-07T14:09:56.515Z,6188
2018-03-07T14:11:06.254Z,5864
2018-03-07T14:12:16.260Z,5560
2018-03-07T14:13:25.993Z,5264
2018-03-07T14:14:36.019Z,5040
2018-03-07T14:15:46.031Z,4840
2018-03-07T14:16:56.032Z,4640
2018-03-07T14:18:05.498Z,4456
2018-03-07T14:19:14.961Z,4324
2018-03-07T14:20:24.696Z,4244
2018-03-07T14:21:34.695Z,4120
2018-03-07T14:22:44.762Z,4088
2018-03-07T14:23:54.504Z,4008
2018-03-07T14:25:03.975Z,3904
2018-03-07T14:26:13.766Z,3668
2018-03-07T14:27:23.766Z,3360
2018-03-07T14:28:33.549Z,3096
2018-03-07T14:29:43.280Z,2944
2018-03-07T14:30:53.020Z,2624
2018-03-07T14:32:02.757Z,2620
2018-03-07T14:33:12.241Z,2596
2018-03-07T14:34:21.970Z,2556
2018-03-07T14:35:31.708Z,2524
2018-03-07T14:36:41.710Z,2488
2018-03-07T14:37:51.545Z,2488
2018-03-07T14:39:01.542Z,2556
2018-03-07T14:40:11.564Z,2612
2018-03-07T14:41:21.643Z,2936
2018-03-07T14:42:31.686Z,2932
2018-03-07T14:43:41.405Z,2924
2018-03-07T14:44:51.408Z,2976
2018-03-07T14:46:01.139Z,3020
2018-03-07T14:47:11.173Z,3072
2018-03-07T14:48:21.171Z,3068
2018-03-07T14:49:31.184Z,3096
2018-03-07T14:50:41.362Z,3136
2018-03-07T14:51:50.903Z,3192
2018-03-07T14:53:00.901Z,3228
2018-03-07T14:54:10.904Z,3272
2018-03-07T14:55:20.897Z,3368
2018-03-07T14:56:30.899Z,3460
2018-03-07T14:57:40.917Z,3524
2018-03-07T14:58:50.918Z,3560
2018-03-07T15:00:00.920Z,3540
2018-03-07T15:01:10.386Z,3484
2018-03-07T15:02:20.387Z,3416
2018-03-07T15:03:30.120Z,3336
2018-03-07T15:04:39.855Z,3264
2018-03-07T15:05:49.857Z,3228
2018-03-07T15:06:59.859Z,3200
2018-03-07T15:08:09.602Z,3180
2018-03-07T15:09:19.061Z,3144
2018-03-07T15:10:28.521Z,3140
2018-03-07T15:11:38.521Z,3188
2018-03-07T15:12:48.516Z,3220
2018-03-07T15:13:58.519Z,3252
2018-03-07T15:15:08.252Z,3268
2018-03-07T15:16:18.253Z,3256
2018-03-07T15:17:28.250Z,3176
2018-03-07T15:18:38.255Z,3016
2018-03-07T15:19:47.720Z,2840
2018-03-07T15:20:57.451Z,2700
2018-03-07T15:22:07.455Z,2588
2018-03-07T15:23:17.243Z,2532
2018-03-07T15:24:26.978Z,2516
2018-03-07T15:25:36.980Z,2500
2018-03-07T15:26:46.982Z,2512
2018-03-07T15:27:56.982Z,2532
2018-03-07T15:29:06.713Z,2516
2018-03-07T15:30:16.441Z,2488
2018-03-07T15:31:26.170Z,2452
2018-03-07T15:32:36.170Z,2404
2018-03-07T15:33:46.168Z,2372
2018-03-07T15:34:56.173Z,2336
2018-03-07T15:36:06.190Z,2292
2018-03-07T15:37:16.194Z,2264
2018-03-07T15:38:26.197Z,2216
2018-03-07T15:39:35.983Z,2164
2018-03-07T15:40:45.450Z,2100
2018-03-07T15:41:55.196Z,2052
2018-03-07T15:43:04.933Z,2000
2018-03-07T15:44:14.660Z,1956
2018-03-07T15:45:24.117Z,1932
2018-03-07T15:46:34.117Z,1896
2018-03-07T15:47:43.880Z,1852
2018-03-07T15:48:53.883Z,1796
2018-03-07T15:50:03.621Z,1768
2018-03-07T15:51:13.412Z,1760
2018-03-07T15:52:23.145Z,1756
2018-03-07T15:53:32.338Z,1744
2018-03-07T15:54:42.337Z,1728
2018-03-07T15:55:52.332Z,1692
2018-03-07T15:57:02.325Z,1636
2018-03-07T15:58:12.323Z,1592
2018-03-07T15:59:22.324Z,1576
2018-03-07T16:00:32.328Z,1548
2018-03-07T16:01:42.325Z,1552
2018-03-07T16:02:52.328Z,1576
2018-03-07T16:04:02.323Z,1560